This is the latest recevied weather packets stored in our database for station/object KJ4UBX-11. If no packets are shown the sender has not sent any weather packets the latest 10 day(s).
| Time | Temp. | Humidity | Pressure | Rain* | Wind** | Luminosity | Snow |
|---|---|---|---|---|---|---|---|
| 1778096268 | 16.67° C | 86% | 1005.6 hPa | - | - | - | - |
| 1778095685 | 16.67° C | 89% | 1005.4 hPa | - | - | - | - |
| 1778095103 | 16.67° C | 87% | 1005.4 hPa | - | - | - | - |
| 1778094518 | 16.67° C | 84% | 1005.6 hPa | - | - | - | - |
| 1778093935 | 16.67° C | 82% | 1005.5 hPa | - | - | - | - |
| 1778093352 | 17.22° C | 78% | 1005.3 hPa | - | - | - | - |
| 1778092770 | 16.67° C | 76% | 1005.3 hPa | - | - | - | - |
| 1778092186 | 16.67° C | 74% | 1005.3 hPa | - | - | - | - |
| 1778091603 | 17.22° C | 72% | 1005.4 hPa | - | - | - | - |
| 1778091020 | 16.67° C | 73% | 1005.5 hPa | - | - | - | - |
| 1778090437 | 17.22° C | 72% | 1005.5 hPa | - | - | - | - |
| 1778089853 | 17.22° C | 72% | 1005.5 hPa | - | - | - | - |
| 1778089269 | 16.67° C | 72% | 1005.7 hPa | - | - | - | - |
| 1778088686 | 16.67° C | 73% | 1005.9 hPa | - | - | - | - |
| 1778088103 | 17.22° C | 71% | 1006 hPa | - | - | - | - |
| 1778087519 | 17.22° C | 71% | 1006.1 hPa | - | - | - | - |
| 1778086937 | 17.22° C | 71% | 1006.3 hPa | - | - | - | - |
| 1778086354 | 17.22° C | 70% | 1006.4 hPa | - | - | - | - |
| 1778085772 | 18.33° C | 66% | 1006.6 hPa | - | - | - | - |
| 1778085191 | 18.33° C | 64% | 1006.7 hPa | - | - | - | - |
| 1778084608 | 19.44° C | 62% | 1006.9 hPa | - | - | - | - |
| 1778084026 | 20° C | 60% | 1007.1 hPa | - | - | - | - |
| 1778083442 | 20° C | 59% | 1007.2 hPa | - | - | - | - |
| 1778082859 | 20° C | 61% | 1007.4 hPa | - | - | - | - |
| 1778082275 | 19.44° C | 62% | 1007.5 hPa | - | - | - | - |
* Rain since midnight (hover to see other rain measurements)
** Current wind speed in m/s (hover to see current wind gust speed)